Terminal Aerodrome Forecast
Issued by NWS

Home | Current Version | Previous Version | Graphics & Text | Print | Product List | Glossary On
Versions: 1 2 3 4 5 6 7 8 9 10 11 12 13 14 15 16 17 18 19 20 21 22 23 24 25 26 27 28 29 30 31 32 33 34
000
FTUS43 KLOT 311000 AAB
TAFORD
TAF AMD
KORD 311010Z 3110/0112 33018G27KT P6SM -SHRA SCT025 OVC035
     FM311200 34023G32KT 6SM -SHSN BKN020 OVC035
      TEMPO 3112/3114 1 1/2SM -SHSN SCT010 OVC020
     FM311500 36026G37KT P6SM BKN035
     FM312100 36026G39KT P6SM SCT035
     FM010000 36020G30KT P6SM BKN035
     FM010300 35015G24KT P6SM VCSH BKN035
     FM010800 35012KT P6SM BKN030=

USA.gov is the U.S. government's official web portal to all federal, state and local government web resources and services.